Time;durP1;ratioP1;P1;durP2;ratioP2;P2;SDS_P1;SDS_P2;PMS_P1;PMS_P2;Temp;Humidity;BMP_temperature;BMP_pressure;BME280_temperature;BME280_humidity;BME280_pressure;Samples;Min_cycle;Max_cycle;Signal;HPM_P1;HPM_P2
2022/12/27 00:00:22;;;;;;;7.30;2.28;;;3.40;99.90;;;;;;5023009;28;20056;-84
2022/12/27 00:02:48;;;;;;;9.40;2.70;;;3.40;99.90;;;;;;5056099;28;20066;-82
2022/12/27 00:05:14;;;;;;;12.65;2.83;;;5.10;99.90;;;;;;5040304;28;20115;-85
2022/12/27 00:07:41;;;;;;;8.55;2.83;;;4.30;99.90;;;;;;5022422;28;20127;-84
2022/12/27 00:10:08;;;;;;;13.93;2.50;;;3.40;99.90;;;;;;5055374;28;20036;-84
2022/12/27 00:12:33;;;;;;;9.45;2.13;;;3.30;99.90;;;;;;5055679;28;20031;-84
2022/12/27 00:14:59;;;;;;;11.88;2.60;;;4.80;99.90;;;;;;5022538;28;20400;-84
2022/12/27 00:17:26;;;;;;;10.90;2.88;;;3.90;99.90;;;;;;5055919;28;20529;-84
2022/12/27 00:19:51;;;;;;;12.43;3.08;;;4.30;99.90;;;;;;5055380;28;20040;-84
2022/12/27 00:22:17;;;;;;;10.98;2.70;;;4.70;99.90;;;;;;5038286;28;20454;-84
2022/12/27 00:24:43;;;;;;;7.80;2.40;;;4.20;99.90;;;;;;5038506;28;20035;-84
2022/12/27 00:27:08;;;;;;;9.70;2.50;;;5.00;99.90;;;;;;5038479;28;20072;-84
2022/12/27 00:29:34;;;;;;;13.35;2.58;;;3.20;99.90;;;;;;5038456;28;20098;-84
2022/12/27 00:32:00;;;;;;;7.90;3.03;;;3.20;99.90;;;;;;5054335;28;20050;-84
2022/12/27 00:34:26;;;;;;;11.70;2.80;;;4.90;99.90;;;;;;5054927;28;20121;-84
2022/12/27 00:36:51;;;;;;;10.55;3.10;;;3.10;99.90;;;;;;5038273;28;20046;-84
2022/12/27 00:39:17;;;;;;;11.35;2.45;;;4.80;99.90;;;;;;5038917;28;20093;-84
2022/12/27 00:41:43;;;;;;;15.13;3.05;;;3.20;99.90;;;;;;5039823;28;20093;-84
2022/12/27 00:44:08;;;;;;;11.07;3.30;;;3.30;99.90;;;;;;5057387;28;20086;-84
2022/12/27 00:46:34;;;;;;;15.35;2.92;;;4.90;99.90;;;;;;5041553;28;20472;-84
2022/12/27 00:49:00;;;;;;;9.25;3.22;;;3.30;99.90;;;;;;5055979;28;20040;-84
2022/12/27 00:51:26;;;;;;;12.60;2.40;;;3.30;99.90;;;;;;5072843;28;20044;-84
2022/12/27 00:53:52;;;;;;;11.90;2.97;;;3.30;99.90;;;;;;5055182;28;20072;-84
2022/12/27 00:56:22;;;;;;;10.98;2.50;;;4.10;99.90;;;;;;5055556;28;20063;-84
2022/12/27 00:58:52;;;;;;;15.18;2.97;;;3.40;99.90;;;;;;5071626;28;20055;-84
2022/12/27 01:01:19;;;;;;;11.20;3.08;;;4.30;99.90;;;;;;5071499;28;20055;-84
2022/12/27 01:03:46;;;;;;;11.57;2.90;;;4.40;99.90;;;;;;5053666;28;20361;-84
2022/12/27 01:06:15;;;;;;;9.88;3.10;;;2.50;99.90;;;;;;5045076;28;20043;-84
2022/12/27 01:08:41;;;;;;;10.95;2.38;;;4.00;99.90;;;;;;5055212;28;20420;-82
2022/12/27 01:11:08;;;;;;;14.60;3.20;;;4.50;99.90;;;;;;5054534;28;20043;-84
2022/12/27 01:13:34;;;;;;;11.00;2.92;;;4.80;99.90;;;;;;5045432;28;20056;-82
2022/12/27 01:16:01;;;;;;;9.57;2.60;;;5.30;99.90;;;;;;5055386;28;20435;-84
2022/12/27 01:18:26;;;;;;;8.45;2.88;;;4.40;99.90;;;;;;5054130;28;20048;-84
2022/12/27 01:20:52;;;;;;;8.98;2.95;;;4.80;99.90;;;;;;5021554;28;20085;-84
2022/12/27 01:23:18;;;;;;;12.80;3.67;;;3.80;99.90;;;;;;5057575;28;20166;-84
2022/12/27 01:25:44;;;;;;;14.27;4.00;;;3.40;99.90;;;;;;5058593;28;20511;-83
2022/12/27 01:28:10;;;;;;;11.57;3.08;;;5.10;99.90;;;;;;5055459;28;20051;-84
2022/12/27 01:30:35;;;;;;;10.02;3.05;;;3.40;99.90;;;;;;5072732;28;20047;-84
2022/12/27 01:33:01;;;;;;;10.93;3.08;;;5.10;99.90;;;;;;5021556;28;20392;-84
2022/12/27 01:35:27;;;;;;;10.57;3.35;;;5.30;99.90;;;;;;5038760;28;20048;-84
2022/12/27 01:37:52;;;;;;;14.35;3.45;;;4.50;99.90;;;;;;5038804;28;20036;-84
2022/12/27 01:40:18;;;;;;;13.27;3.30;;;5.20;99.90;;;;;;5038584;28;20041;-84
2022/12/27 01:42:54;;;;;;;12.70;2.70;;;3.50;99.90;;;;;;5055185;28;20123;-84
2022/12/27 01:45:34;;;;;;;10.45;3.30;;;4.20;99.90;;;;;;5055601;28;20047;-84
2022/12/27 01:48:22;;;;;;;9.52;2.80;;;4.60;99.90;;;;;;5055185;28;20437;-84
2022/12/27 01:51:00;;;;;;;12.98;3.13;;;3.70;99.90;;;;;;5071110;28;20042;-84
2022/12/27 01:53:42;;;;;;;19.73;3.55;;;5.50;99.90;;;;;;5054744;28;20029;-84
2022/12/27 01:56:24;;;;;;;12.70;3.60;;;3.70;99.90;;;;;;5071319;28;20044;-84
2022/12/27 01:59:01;;;;;;;13.90;3.20;;;3.70;99.90;;;;;;5053081;28;20043;-84
2022/12/27 02:01:34;;;;;;;10.80;3.22;;;3.70;99.90;;;;;;5071050;28;20040;-84
2022/12/27 02:04:11;;;;;;;10.18;3.00;;;3.70;99.90;;;;;;5054214;28;20048;-84
2022/12/27 02:06:38;;;;;;;9.68;3.00;;;3.70;99.90;;;;;;5071135;28;20112;-84
2022/12/27 02:09:13;;;;;;;8.57;3.08;;;3.70;99.90;;;;;;5054599;28;20441;-84
2022/12/27 02:11:52;;;;;;;10.80;3.35;;;3.90;99.90;;;;;;5054418;28;20127;-84
2022/12/27 02:14:30;;;;;;;15.82;3.50;;;5.50;99.90;;;;;;5070488;28;20677;-84
2022/12/27 02:17:06;;;;;;;16.08;2.97;;;3.70;99.90;;;;;;5054104;28;20094;-84
2022/12/27 02:19:40;;;;;;;11.20;3.10;;;3.70;99.90;;;;;;5054185;28;20055;-84
2022/12/27 02:24:01;;;;;;;9.32;3.08;;;3.70;99.90;;;;;;5054152;28;20071;-84
2022/12/27 02:25:46;;;;;;;12.23;3.05;;;3.70;99.90;;;;;;5070612;28;20101;-84
2022/12/27 02:28:40;;;;;;;14.35;2.88;;;3.70;99.90;;;;;;5053829;28;20504;-84
2022/12/27 02:31:18;;;;;;;11.20;2.78;;;3.70;99.90;;;;;;5053146;28;20044;-84
2022/12/27 02:33:47;;;;;;;10.13;3.10;;;3.70;99.90;;;;;;5069874;28;20086;-84
2022/12/27 02:36:22;;;;;;;10.30;2.47;;;3.80;99.90;;;;;;5054447;28;20707;-84
2022/12/27 02:38:52;;;;;;;15.20;3.20;;;4.70;99.90;;;;;;5070945;28;20353;-84
2022/12/27 02:55:36;;;;;;;9.27;3.33;;;3.80;99.90;;;;;;5070229;28;20438;-84
2022/12/27 02:58:23;;;;;;;12.05;3.15;;;3.80;99.90;;;;;;5052548;28;20040;-84
2022/12/27 03:04:34;;;;;;;;;;;3.80;99.90;;;;;;5012967;28;20496;-84
2022/12/27 03:07:25;;;;;;;9.85;3.17;;;3.80;99.90;;;;;;5051685;28;19917;-84
2022/12/27 03:16:22;;;;;;;11.05;2.70;;;3.70;99.90;;;;;;5071536;28;20422;-84
2022/12/27 03:19:04;;;;;;;11.15;2.60;;;4.20;99.90;;;;;;5065344;28;20071;-84
2022/12/27 03:27:34;;;;;;;20.23;4.60;;;5.60;99.90;;;;;;5069274;28;20156;-84
2022/12/27 03:33:14;;;;;;;12.70;2.75;;;3.80;99.90;;;;;;5069493;28;20098;-84
2022/12/27 03:35:41;;;;;;;7.25;2.45;;;3.80;99.90;;;;;;5068844;28;20492;-84
2022/12/27 03:38:11;;;;;;;9.55;2.50;;;5.60;99.90;;;;;;5069306;28;20036;-84
2022/12/27 03:43:32;;;;;;;12.50;2.65;;;4.50;99.90;;;;;;5068675;28;20055;-84
2022/12/27 03:46:33;;;;;;;12.82;2.90;;;3.80;99.90;;;;;;5067979;28;20063;-84
2022/12/27 03:49:20;;;;;;;8.43;2.60;;;3.90;99.90;;;;;;5052876;28;20033;-84
2022/12/27 03:52:06;;;;;;;17.70;2.97;;;3.90;99.90;;;;;;5053068;28;20434;-84
2022/12/27 03:54:38;;;;;;;9.63;2.70;;;3.90;99.90;;;;;;5069096;28;20036;-84
2022/12/27 03:57:07;;;;;;;14.35;2.58;;;4.00;99.90;;;;;;5066980;28;20066;-84
2022/12/27 03:59:33;;;;;;;16.88;3.45;;;5.20;99.90;;;;;;5051649;28;20101;-84
2022/12/27 04:01:59;;;;;;;13.48;2.70;;;4.20;99.90;;;;;;5034355;28;20045;-84
2022/12/27 04:04:25;;;;;;;9.43;2.50;;;5.90;99.90;;;;;;5068562;28;20040;-84
2022/12/27 04:06:51;;;;;;;9.52;2.30;;;4.80;99.90;;;;;;5051974;28;20094;-84
2022/12/27 04:36:38;;;;;;;10.98;3.20;;;5.20;99.90;;;;;;5039126;28;20588;-84
2022/12/27 04:39:04;;;;;;;8.75;2.38;;;5.10;99.90;;;;;;5018376;28;20033;-84
2022/12/27 04:55:17;;;;;;;11.52;2.55;;;4.50;99.90;;;;;;5043275;28;20416;-84
2022/12/27 04:57:43;;;;;;;12.23;2.80;;;4.10;99.90;;;;;;5050927;28;20036;-84
2022/12/27 05:02:55;;;;;;;10.27;2.35;;;4.10;99.90;;;;;;5053826;28;20550;-84
2022/12/27 05:05:21;;;;;;;10.18;2.35;;;4.40;99.90;;;;;;5050790;28;20044;-84
2022/12/27 05:16:00;;;;;;;8.68;2.42;;;4.10;99.90;;;;;;5068161;28;20519;-84
2022/12/27 05:18:26;;;;;;;17.27;3.15;;;4.50;99.90;;;;;;5050756;28;20048;-84
2022/12/27 05:20:52;;;;;;;10.55;2.80;;;4.00;99.90;;;;;;5051396;28;20076;-84
2022/12/27 05:26:02;;;;;;;10.68;3.20;;;4.00;99.90;;;;;;5039277;28;20419;-84
2022/12/27 05:28:28;;;;;;;13.32;3.30;;;4.00;99.90;;;;;;5034252;28;20057;-84
2022/12/27 05:30:58;;;;;;;12.95;2.97;;;4.30;99.90;;;;;;5050066;28;20489;-84
2022/12/27 05:33:24;;;;;;;11.32;3.67;;;5.60;99.90;;;;;;5051922;28;20143;-84
2022/12/27 05:35:49;;;;;;;16.65;3.50;;;5.50;99.90;;;;;;5035202;28;20087;-84
2022/12/27 05:38:15;;;;;;;13.68;3.75;;;5.60;99.90;;;;;;5051525;28;20481;-84
2022/12/27 05:40:41;;;;;;;13.25;3.55;;;5.40;99.90;;;;;;5017305;28;20439;-84
2022/12/27 05:43:06;;;;;;;10.95;3.22;;;5.10;99.90;;;;;;5018195;28;20051;-84
2022/12/27 05:45:32;;;;;;;14.88;3.10;;;3.90;99.90;;;;;;5034178;28;20044;-84
2022/12/27 05:47:58;;;;;;;10.27;2.95;;;4.50;99.90;;;;;;5052401;28;20040;-84
2022/12/27 05:50:24;;;;;;;23.52;3.67;;;4.00;99.90;;;;;;5054378;28;20474;-84
2022/12/27 05:52:50;;;;;;;7.50;2.60;;;4.90;99.90;;;;;;5052859;28;20675;-84
2022/12/27 05:55:16;;;;;;;13.88;3.65;;;4.10;99.90;;;;;;5034678;28;20048;-84
2022/12/27 05:57:42;;;;;;;10.93;3.30;;;5.70;99.90;;;;;;5051514;28;20111;-84
2022/12/27 06:00:08;;;;;;;11.85;3.00;;;5.90;99.90;;;;;;5036128;28;20052;-75
2022/12/27 06:02:35;;;;;;;14.02;3.50;;;4.10;99.90;;;;;;5069147;28;20182;-76
2022/12/27 06:05:00;;;;;;;12.60;3.05;;;4.10;99.90;;;;;;5067965;28;20481;-76
2022/12/27 06:07:26;;;;;;;11.38;3.22;;;4.40;99.90;;;;;;5067718;28;20055;-76
2022/12/27 06:09:52;;;;;;;12.68;3.10;;;4.10;99.90;;;;;;5070610;28;20036;-77
2022/12/27 06:12:17;;;;;;;13.20;3.58;;;4.10;99.90;;;;;;5071014;28;20033;-76
2022/12/27 06:14:43;;;;;;;13.77;3.80;;;4.10;99.90;;;;;;5037844;28;20052;-76
2022/12/27 06:17:09;;;;;;;17.70;3.33;;;4.10;99.90;;;;;;5069210;28;20049;-77
2022/12/27 06:19:34;;;;;;;15.00;3.47;;;4.10;99.90;;;;;;5054325;28;20085;-76
2022/12/27 06:22:00;;;;;;;17.38;3.13;;;4.10;99.90;;;;;;5071145;28;20071;-75
2022/12/27 06:24:26;;;;;;;10.75;3.13;;;4.10;99.90;;;;;;5069780;28;20048;-76
2022/12/27 06:26:51;;;;;;;15.15;3.50;;;4.00;99.90;;;;;;5070840;28;20053;-75
2022/12/27 06:29:17;;;;;;;17.20;3.80;;;3.90;99.90;;;;;;5070682;28;20053;-76
2022/12/27 06:31:43;;;;;;;14.45;3.47;;;3.90;99.90;;;;;;5037648;28;20041;-76
2022/12/27 06:34:10;;;;;;;14.00;3.20;;;4.00;99.90;;;;;;5070675;28;20045;-75
2022/12/27 06:36:35;;;;;;;10.95;2.70;;;3.90;99.90;;;;;;5070510;28;20125;-76
2022/12/27 06:39:01;;;;;;;13.10;3.65;;;3.90;99.90;;;;;;5068690;28;20484;-76
2022/12/27 06:41:27;;;;;;;11.77;3.38;;;3.90;99.90;;;;;;5070628;28;20048;-76
2022/12/27 06:43:55;;;;;;;15.60;3.53;;;3.90;99.90;;;;;;5070655;28;20052;-76
2022/12/27 06:46:23;;;;;;;17.52;3.55;;;4.20;99.90;;;;;;5070571;28;20048;-75
2022/12/27 06:48:49;;;;;;;17.63;3.38;;;3.90;99.90;;;;;;5070833;28;20396;-76
2022/12/27 06:51:17;;;;;;;11.00;3.33;;;3.90;99.90;;;;;;5070529;28;20102;-75
2022/12/27 06:53:43;;;;;;;15.68;3.50;;;3.90;99.90;;;;;;5068778;28;20481;-76
2022/12/27 06:56:12;;;;;;;10.77;3.33;;;4.00;99.90;;;;;;5070002;28;20052;-75
2022/12/27 06:58:38;;;;;;;12.43;3.33;;;3.90;99.90;;;;;;5068483;28;20558;-76
2022/12/27 07:01:16;;;;;;;10.15;3.38;;;3.80;99.90;;;;;;5036228;28;20565;-76
2022/12/27 07:03:42;;;;;;;14.63;3.05;;;4.30;99.90;;;;;;5069267;28;20055;-75
2022/12/27 07:06:10;;;;;;;10.52;3.40;;;3.80;99.90;;;;;;5068520;28;20630;-76
2022/12/27 07:08:36;;;;;;;12.98;3.83;;;3.80;99.90;;;;;;5068936;28;20040;-76
2022/12/27 07:11:05;;;;;;;11.88;3.03;;;3.80;99.90;;;;;;5061620;28;20040;-76
2022/12/27 07:13:36;;;;;;;10.43;3.35;;;3.80;99.90;;;;;;5070146;28;20392;-76
2022/12/27 07:16:06;;;;;;;10.30;3.30;;;3.80;99.90;;;;;;5036222;28;20507;-75
2022/12/27 07:18:32;;;;;;;14.45;3.05;;;3.70;99.90;;;;;;5070081;28;20040;-76
2022/12/27 07:20:58;;;;;;;13.23;3.15;;;3.80;99.90;;;;;;5067392;28;20518;-76
2022/12/27 07:23:23;;;;;;;13.07;3.10;;;3.80;99.90;;;;;;5053145;28;20601;-76
2022/12/27 07:25:49;;;;;;;9.88;3.50;;;3.80;99.90;;;;;;5052845;28;20051;-77
2022/12/27 07:28:15;;;;;;;9.02;2.67;;;4.00;99.90;;;;;;5052736;28;20053;-77
2022/12/27 07:30:41;;;;;;;14.40;2.63;;;3.80;99.90;;;;;;5068785;28;20051;-77
2022/12/27 07:33:07;;;;;;;12.07;3.17;;;3.80;99.90;;;;;;5069651;28;20036;-77
2022/12/27 07:35:33;;;;;;;15.40;3.55;;;3.80;99.90;;;;;;5069296;28;20556;-76
2022/12/27 07:37:59;;;;;;;14.13;3.78;;;3.90;99.90;;;;;;5069356;28;20045;-76
2022/12/27 07:40:25;;;;;;;19.90;3.30;;;3.80;99.90;;;;;;5069715;28;20044;-76
2022/12/27 07:42:50;;;;;;;14.95;3.50;;;3.90;99.90;;;;;;5069215;28;20048;-77
2022/12/27 07:45:16;;;;;;;12.15;3.75;;;4.70;99.90;;;;;;5069527;28;20048;-76
2022/12/27 07:47:42;;;;;;;19.40;4.15;;;3.80;99.90;;;;;;5068831;28;20040;-76
2022/12/27 07:50:08;;;;;;;12.90;3.20;;;3.90;99.90;;;;;;5053036;28;20484;-76
2022/12/27 07:52:34;;;;;;;14.85;3.35;;;3.80;99.90;;;;;;5069062;28;20032;-76
2022/12/27 07:54:59;;;;;;;11.70;3.35;;;3.80;99.90;;;;;;5069421;28;20063;-76
2022/12/27 07:57:28;;;;;;;11.55;3.67;;;3.80;99.90;;;;;;5052301;28;20101;-75
2022/12/27 07:59:53;;;;;;;14.43;3.85;;;3.70;99.90;;;;;;5068760;28;20047;-76
2022/12/27 08:02:19;;;;;;;9.05;3.20;;;3.80;99.90;;;;;;5068534;28;20048;-77
2022/12/27 08:04:45;;;;;;;15.65;3.55;;;3.70;99.90;;;;;;5051551;28;20044;-76
2022/12/27 08:07:20;;;;;;;20.60;3.75;;;4.40;99.90;;;;;;5068652;28;20125;-77
2022/12/27 08:09:47;;;;;;;11.77;3.08;;;3.80;99.90;;;;;;5066624;28;20047;-76
2022/12/27 08:12:13;;;;;;;16.02;3.15;;;3.80;99.90;;;;;;5068697;28;20116;-77
2022/12/27 08:14:39;;;;;;;10.25;3.78;;;3.80;99.90;;;;;;5051712;28;20049;-77
2022/12/27 08:17:15;;;;;;;18.92;4.40;;;3.90;99.90;;;;;;5052658;28;20513;-77
2022/12/27 08:19:40;;;;;;;13.93;3.50;;;3.90;99.90;;;;;;5069779;28;20063;-77
2022/12/27 08:22:11;;;;;;;15.80;3.53;;;3.90;99.90;;;;;;5055055;28;20048;-76
2022/12/27 08:24:39;;;;;;;14.60;3.42;;;3.90;99.90;;;;;;5070283;28;20048;-77
2022/12/27 08:27:05;;;;;;;14.70;3.83;;;3.90;99.90;;;;;;5069443;28;20123;-76
2022/12/27 08:29:31;;;;;;;13.38;3.70;;;4.00;99.90;;;;;;5052463;28;20858;-76
2022/12/27 08:31:57;;;;;;;14.18;3.65;;;3.90;99.90;;;;;;5068777;28;20068;-76
2022/12/27 08:34:23;;;;;;;15.63;3.13;;;4.60;99.90;;;;;;5068652;28;20040;-77
2022/12/27 08:36:50;;;;;;;15.23;3.90;;;4.20;99.90;;;;;;5052696;28;20041;-81
2022/12/27 08:39:16;;;;;;;12.30;3.15;;;3.90;99.90;;;;;;5067518;28;20086;-82
2022/12/27 08:41:42;;;;;;;10.88;3.78;;;5.00;99.90;;;;;;5036409;28;20479;-81
2022/12/27 08:44:09;;;;;;;14.23;3.70;;;3.90;99.90;;;;;;5053211;28;20054;-83
2022/12/27 08:46:35;;;;;;;13.27;3.85;;;3.90;99.90;;;;;;5053027;28;20400;-83
2022/12/27 08:49:00;;;;;;;14.05;3.95;;;3.90;99.90;;;;;;5069346;28;20048;-82
2022/12/27 08:51:27;;;;;;;11.60;3.42;;;3.90;99.90;;;;;;5066717;28;20036;-83
2022/12/27 08:53:52;;;;;;;14.48;3.97;;;4.00;99.90;;;;;;5051988;28;20042;-80
2022/12/27 08:56:18;;;;;;;15.48;3.70;;;5.10;99.90;;;;;;5051871;28;20075;-82
2022/12/27 08:58:44;;;;;;;10.95;3.95;;;4.00;99.90;;;;;;5069195;28;20149;-82
2022/12/27 09:01:10;;;;;;;11.13;3.38;;;4.10;99.90;;;;;;5052282;28;20409;-80
2022/12/27 09:03:36;;;;;;;14.93;3.63;;;4.80;99.90;;;;;;5067811;28;20110;-75
2022/12/27 09:06:14;;;;;;;15.90;3.67;;;4.20;99.90;;;;;;5049955;28;20438;-76
2022/12/27 09:08:41;;;;;;;21.25;3.50;;;4.30;99.90;;;;;;5066786;28;20076;-76
2022/12/27 09:11:08;;;;;;;11.07;3.65;;;4.90;99.90;;;;;;5050841;28;20119;-81
2022/12/27 09:13:34;;;;;;;15.35;3.88;;;4.40;99.90;;;;;;5051359;28;20045;-76
2022/12/27 09:16:23;;;;;;;10.63;3.28;;;4.80;99.90;;;;;;5032593;28;20042;-80
2022/12/27 09:18:52;;;;;;;11.60;3.53;;;4.40;99.90;;;;;;5068830;28;20059;-81
2022/12/27 09:21:19;;;;;;;13.40;3.45;;;4.50;99.90;;;;;;5052267;28;20052;-83
2022/12/27 09:23:45;;;;;;;15.23;3.30;;;4.90;99.90;;;;;;5052115;28;20569;-81
2022/12/27 09:26:17;;;;;;;16.73;4.22;;;4.80;99.90;;;;;;5068648;28;20051;-81
2022/12/27 09:28:45;;;;;;;14.70;3.42;;;5.00;99.90;;;;;;5068130;28;20053;-80
2022/12/27 09:31:12;;;;;;;14.68;4.10;;;5.30;99.90;;;;;;5068770;28;20041;-81
2022/12/27 09:33:38;;;;;;;13.52;3.85;;;5.50;99.90;;;;;;5062479;28;20040;-80
2022/12/27 09:36:07;;;;;;;14.48;3.28;;;5.60;99.90;;;;;;5048858;28;20166;-80
2022/12/27 09:38:34;;;;;;;15.45;3.65;;;5.50;99.90;;;;;;5068363;28;20099;-79
2022/12/27 09:41:02;;;;;;;11.63;2.83;;;5.60;99.90;;;;;;5051896;28;20395;-80
2022/12/27 09:43:43;;;;;;;14.43;3.75;;;5.90;99.90;;;;;;5070677;28;20116;-79
2022/12/27 09:46:25;;;;;;;14.55;2.78;;;6.10;99.90;;;;;;5073051;28;20109;-80
2022/12/27 09:48:54;;;;;;;10.10;2.95;;;6.10;99.90;;;;;;5056247;28;20033;-81
2022/12/27 09:51:31;;;;;;;9.05;3.35;;;6.40;99.90;;;;;;5055287;28;20047;-80
2022/12/27 09:54:31;;;;;;;14.40;3.25;;;6.80;99.90;;;;;;5055776;28;20040;-79
2022/12/27 09:56:59;;;;;;;16.45;3.17;;;7.20;99.90;;;;;;5059259;28;20108;-81
2022/12/27 09:59:34;;;;;;;11.25;3.38;;;7.50;99.90;;;;;;5072113;28;20080;-80
2022/12/27 10:02:00;;;;;;;12.32;3.30;;;7.70;99.90;;;;;;5055301;28;20127;-80
2022/12/27 10:04:28;;;;;;;13.10;3.70;;;8.00;99.90;;;;;;5054507;28;20040;-81
2022/12/27 10:07:19;;;;;;;10.85;3.05;;;8.20;99.90;;;;;;5068346;28;20136;-81
2022/12/27 10:10:12;;;;;;;9.02;2.50;;;8.20;99.90;;;;;;5055173;28;20048;-81
2022/12/27 10:13:06;;;;;;;12.57;2.67;;;8.30;99.90;;;;;;5054113;28;20477;-80
2022/12/27 10:15:54;;;;;;;14.20;3.05;;;8.70;99.90;;;;;;5071209;28;20092;-80
2022/12/27 10:18:37;;;;;;;10.82;2.90;;;8.90;99.90;;;;;;5055075;28;20119;-81
2022/12/27 10:21:18;;;;;;;11.20;2.90;;;9.10;99.90;;;;;;5069984;28;20048;-82
2022/12/27 10:23:52;;;;;;;10.35;2.83;;;9.30;99.90;;;;;;5043064;28;20093;-81
2022/12/27 10:26:19;;;;;;;12.43;2.60;;;9.40;99.90;;;;;;5072515;28;20033;-81
2022/12/27 10:28:49;;;;;;;11.07;2.95;;;9.50;99.90;;;;;;5070925;28;20459;-80
2022/12/27 10:31:21;;;;;;;11.00;2.70;;;9.50;99.90;;;;;;5054905;28;20032;-81
2022/12/27 10:33:48;;;;;;;10.98;2.67;;;9.30;99.90;;;;;;5071771;28;20056;-81
2022/12/27 10:36:24;;;;;;;10.75;2.70;;;9.20;99.90;;;;;;5020000;28;20126;-82
2022/12/27 10:38:50;;;;;;;12.07;2.92;;;9.00;99.90;;;;;;5072203;28;20127;-81
2022/12/27 10:41:28;;;;;;;8.48;2.50;;;8.90;99.90;;;;;;5038395;28;20561;-81
2022/12/27 10:43:54;;;;;;;13.57;2.97;;;8.80;99.90;;;;;;5053999;28;20518;-81
2022/12/27 10:46:26;;;;;;;11.68;2.75;;;8.70;99.90;;;;;;5054453;28;20051;-82
2022/12/27 10:49:01;;;;;;;12.75;2.85;;;8.50;99.90;;;;;;5072953;28;20070;-83
2022/12/27 10:51:33;;;;;;;13.45;3.03;;;8.50;99.90;;;;;;5054301;28;20036;-81
2022/12/27 10:54:22;;;;;;;12.57;2.95;;;8.40;99.90;;;;;;5071967;28;20068;-80
2022/12/27 10:56:48;;;;;;;15.30;3.40;;;8.10;99.90;;;;;;5079722;28;20056;-81
2022/12/27 10:59:23;;;;;;;8.50;3.10;;;7.90;99.90;;;;;;5053641;28;20116;-81
2022/12/27 11:02:14;;;;;;;10.88;2.53;;;7.70;99.90;;;;;;5068489;28;20105;-80
2022/12/27 11:04:58;;;;;;;9.63;2.63;;;7.60;99.90;;;;;;5070260;28;20036;-80
2022/12/27 11:07:32;;;;;;;11.23;3.38;;;7.60;99.90;;;;;;5070244;28;20074;-82
2022/12/27 11:10:19;;;;;;;13.63;4.00;;;7.80;99.90;;;;;;5070367;28;20071;-82
2022/12/27 11:12:55;;;;;;;10.18;2.72;;;7.90;99.90;;;;;;5054042;28;20128;-80
2022/12/27 11:15:21;;;;;;;10.95;3.05;;;8.30;99.90;;;;;;5069477;28;20049;-80
2022/12/27 11:17:56;;;;;;;10.60;3.10;;;8.70;99.90;;;;;;5066826;28;20063;-80
2022/12/27 11:20:22;;;;;;;10.60;2.80;;;8.90;99.90;;;;;;5070543;28;20048;-81
2022/12/27 11:22:53;;;;;;;13.13;3.10;;;8.90;99.90;;;;;;5068236;28;20303;-80
2022/12/27 11:25:20;;;;;;;13.13;3.17;;;8.70;99.90;;;;;;5070048;28;20071;-81
2022/12/27 11:27:52;;;;;;;13.05;3.25;;;8.30;99.90;;;;;;5069071;28;20052;-80
2022/12/27 11:30:29;;;;;;;13.38;3.53;;;8.20;99.90;;;;;;5077007;28;20376;-80
2022/12/27 11:33:02;;;;;;;16.52;2.95;;;8.10;99.90;;;;;;5074115;28;20090;-79
2022/12/27 11:35:28;;;;;;;12.77;3.58;;;7.90;99.90;;;;;;5068010;28;20115;-75
2022/12/27 11:37:54;;;;;;;10.30;3.00;;;7.80;99.90;;;;;;5053093;28;20044;-77
2022/12/27 11:40:29;;;;;;;11.15;2.78;;;7.70;99.90;;;;;;5051983;28;20041;-76
2022/12/27 11:43:16;;;;;;;15.07;3.60;;;7.60;99.90;;;;;;5069473;28;20036;-76
2022/12/27 11:45:48;;;;;;;14.60;3.10;;;7.50;99.90;;;;;;5069034;28;20037;-76
2022/12/27 11:48:36;;;;;;;15.07;3.78;;;7.40;99.90;;;;;;5069284;28;20036;-76
2022/12/27 11:51:40;;;;;;;14.13;3.25;;;7.30;99.90;;;;;;5066291;28;20084;-75
2022/12/27 11:54:25;;;;;;;11.23;3.80;;;7.20;99.90;;;;;;5050838;28;20068;-75
2022/12/27 11:57:05;;;;;;;15.85;3.50;;;7.10;99.90;;;;;;5067145;28;20047;-76
2022/12/27 11:59:45;;;;;;;7.85;3.38;;;7.10;99.90;;;;;;5068927;28;20051;-76
2022/12/27 12:02:51;;;;;;;8.15;3.08;;;7.00;99.90;;;;;;5069370;28;20047;-75
2022/12/27 12:05:44;;;;;;;9.98;2.97;;;7.00;99.90;;;;;;5062409;28;20056;-76
2022/12/27 12:08:20;;;;;;;9.13;3.45;;;7.00;99.90;;;;;;5053462;28;20037;-81
2022/12/27 12:11:02;;;;;;;13.73;3.25;;;6.90;99.90;;;;;;5055200;28;20044;-82
2022/12/27 12:13:33;;;;;;;12.40;3.65;;;7.00;99.90;;;;;;5068411;28;20028;-82
2022/12/27 12:16:07;;;;;;;14.65;3.80;;;6.90;99.90;;;;;;5070487;28;20041;-82
2022/12/27 12:18:39;;;;;;;10.88;3.72;;;7.00;99.90;;;;;;5070046;28;20040;-80
2022/12/27 12:21:23;;;;;;;11.70;3.08;;;7.00;99.90;;;;;;5054763;28;20052;-81
2022/12/27 12:24:27;;;;;;;14.20;3.50;;;7.10;99.90;;;;;;5046915;28;20040;-76
2022/12/27 12:27:30;;;;;;;10.13;3.67;;;7.20;99.90;;;;;;5064789;28;20049;-75
2022/12/27 12:30:25;;;;;;;10.32;4.65;;;7.10;99.90;;;;;;5068250;28;20059;-76
2022/12/27 12:33:01;;;;;;;12.25;3.53;;;7.00;99.90;;;;;;5070078;28;20080;-80
2022/12/27 12:35:39;;;;;;;13.98;3.60;;;7.00;99.90;;;;;;5055985;28;20419;-82
2022/12/27 12:38:04;;;;;;;12.13;3.55;;;7.00;99.90;;;;;;5054660;28;20097;-79
2022/12/27 12:40:50;;;;;;;18.45;4.60;;;6.90;99.90;;;;;;5071857;28;20037;-80
2022/12/27 12:43:22;;;;;;;12.35;4.53;;;6.90;99.90;;;;;;5073152;28;20071;-79
2022/12/27 12:46:06;;;;;;;12.45;4.07;;;6.90;99.90;;;;;;5071433;28;20101;-80
2022/12/27 12:49:09;;;;;;;12.00;4.22;;;6.90;99.90;;;;;;5087656;28;20073;-75
2022/12/27 12:51:41;;;;;;;14.15;4.88;;;7.00;99.90;;;;;;5071522;28;20046;-75
2022/12/27 12:54:28;;;;;;;11.85;4.40;;;7.00;99.90;;;;;;5047501;28;20111;-80
2022/12/27 12:57:19;;;;;;;11.80;4.32;;;7.10;99.90;;;;;;5068373;28;20048;-76
2022/12/27 13:00:07;;;;;;;15.95;5.05;;;7.10;99.90;;;;;;5071356;28;20137;-76
2022/12/27 13:02:55;;;;;;;13.15;5.10;;;7.30;99.90;;;;;;5087941;28;20044;-76
2022/12/27 13:05:36;;;;;;;11.10;4.25;;;7.30;99.90;;;;;;5070541;28;20442;-77
2022/12/27 13:08:34;;;;;;;10.85;5.03;;;7.50;99.90;;;;;;5070130;28;20048;-77
2022/12/27 13:11:11;;;;;;;12.18;5.38;;;7.70;99.90;;;;;;5046916;28;20048;-76
2022/12/27 13:13:55;;;;;;;13.35;5.53;;;7.70;99.90;;;;;;5053812;28;20047;-76
2022/12/27 13:16:52;;;;;;;11.07;5.32;;;7.70;99.90;;;;;;5052872;28;20120;-76
2022/12/27 13:19:47;;;;;;;14.57;5.78;;;7.70;99.90;;;;;;5058176;28;20114;-76
2022/12/27 13:22:13;;;;;;;13.55;4.93;;;7.70;99.90;;;;;;4982705;28;20072;-75
2022/12/27 13:25:02;;;;;;;12.93;6.70;;;7.60;99.90;;;;;;5075730;28;20131;-76
2022/12/27 13:27:48;;;;;;;10.93;6.53;;;7.50;99.90;;;;;;5074612;28;20508;-77
2022/12/27 13:30:19;;;;;;;11.23;5.75;;;7.40;99.90;;;;;;5076076;28;20048;-80
2022/12/27 13:33:17;;;;;;;11.45;6.35;;;7.40;99.90;;;;;;5073711;28;20036;-76
2022/12/27 13:35:59;;;;;;;13.20;5.97;;;7.40;99.90;;;;;;5056513;28;20404;-75
2022/12/27 13:38:43;;;;;;;18.77;6.43;;;7.30;99.90;;;;;;5074851;28;20059;-75
2022/12/27 13:41:39;;;;;;;12.88;6.70;;;7.40;99.90;;;;;;5073815;28;20135;-77
2022/12/27 13:44:25;;;;;;;13.70;6.20;;;7.70;99.90;;;;;;5073826;28;20076;-76
2022/12/27 13:47:19;;;;;;;11.10;6.15;;;8.10;99.90;;;;;;5073633;28;20044;-76
2022/12/27 13:50:15;;;;;;;11.30;6.22;;;8.20;99.90;;;;;;5071657;28;20094;-75
2022/12/27 13:53:12;;;;;;;14.80;5.85;;;8.40;99.90;;;;;;5072336;28;20384;-75
2022/12/27 13:55:52;;;;;;;10.55;6.45;;;8.50;99.90;;;;;;5072799;28;20233;-75
2022/12/27 13:58:24;;;;;;;17.17;5.90;;;8.60;99.90;;;;;;5074070;28;20039;-75
2022/12/27 14:01:19;;;;;;;12.15;5.90;;;8.40;99.90;;;;;;5070589;28;20039;-76
2022/12/27 14:04:06;;;;;;;12.32;5.80;;;8.20;99.90;;;;;;5059971;28;20059;-76
2022/12/27 14:06:47;;;;;;;9.77;5.80;;;8.00;99.90;;;;;;5068773;28;20043;-76
2022/12/27 14:09:53;;;;;;;15.32;5.55;;;7.90;99.90;;;;;;5072257;28;20054;-75
2022/12/27 14:12:33;;;;;;;16.02;6.03;;;7.80;99.90;;;;;;5072603;28;20048;-75
2022/12/27 14:15:03;;;;;;;15.25;6.60;;;7.60;99.90;;;;;;5072306;28;20077;-76
2022/12/27 14:17:49;;;;;;;14.18;6.72;;;7.60;99.90;;;;;;5073469;28;20055;-76
2022/12/27 14:20:59;;;;;;;13.60;6.55;;;7.40;99.90;;;;;;5067504;28;20051;-76
2022/12/27 14:23:30;;;;;;;16.58;7.25;;;7.40;99.90;;;;;;4983401;28;20100;-75
2022/12/27 14:26:37;;;;;;;15.45;7.00;;;7.30;99.90;;;;;;4977807;28;20046;-75
2022/12/27 14:29:34;;;;;;;11.98;6.35;;;7.30;99.90;;;;;;5063212;28;20052;-76
2022/12/27 14:32:25;;;;;;;17.48;6.93;;;7.20;99.90;;;;;;5073077;28;20054;-75
2022/12/27 14:35:20;;;;;;;12.68;7.38;;;7.20;99.90;;;;;;5060582;28;20190;-76
2022/12/27 14:38:01;;;;;;;14.38;8.10;;;7.20;99.90;;;;;;5025601;28;20058;-77
2022/12/27 14:40:32;;;;;;;12.05;7.38;;;7.10;99.90;;;;;;5057475;28;20044;-77
2022/12/27 14:43:16;;;;;;;19.67;7.43;;;7.00;99.90;;;;;;5058190;28;20130;-79
2022/12/27 14:45:54;;;;;;;15.32;8.05;;;7.00;99.90;;;;;;5073293;28;20151;-78
2022/12/27 14:48:26;;;;;;;10.68;6.13;;;7.00;99.90;;;;;;5073609;28;20044;-78
2022/12/27 14:51:00;;;;;;;15.80;7.13;;;6.90;99.90;;;;;;5075213;28;20042;-79